Time;durP1;ratioP1;P1;durP2;ratioP2;P2;SDS_P1;SDS_P2;PMS_P1;PMS_P2;Temp;Humidity;BMP_temperature;BMP_pressure;BME280_temperature;BME280_humidity;BME280_pressure;Samples;Min_cycle;Max_cycle;Signal;HPM_P1;HPM_P2
2023/08/31 00:00:35;;;;;;;1.65;1.55;;;12.60;99.90;;;;;;5104574;27;20043;-88
2023/08/31 00:03:01;;;;;;;1.60;1.50;;;12.60;99.90;;;;;;5124537;27;20039;-87
2023/08/31 00:05:28;;;;;;;1.65;1.55;;;12.50;99.90;;;;;;5123215;27;20046;-90
2023/08/31 00:07:57;;;;;;;1.52;1.45;;;12.50;99.90;;;;;;5108958;27;20571;-88
2023/08/31 00:10:23;;;;;;;1.25;1.25;;;12.40;99.90;;;;;;5112947;27;20054;-88
2023/08/31 00:12:49;;;;;;;1.55;1.45;;;12.40;99.90;;;;;;5146806;27;20043;-88
2023/08/31 00:15:15;;;;;;;1.55;1.45;;;12.30;99.90;;;;;;5126727;27;20300;-86
2023/08/31 00:17:42;;;;;;;1.40;1.35;;;12.40;99.90;;;;;;5126668;27;20104;-90
2023/08/31 00:20:11;;;;;;;1.48;1.40;;;12.30;99.90;;;;;;5129628;27;20053;-87
2023/08/31 00:22:37;;;;;;;1.58;1.48;;;12.40;99.90;;;;;;5130706;27;20483;-86
2023/08/31 00:25:05;;;;;;;1.27;1.27;;;12.20;99.90;;;;;;5130699;27;20050;-86
2023/08/31 00:27:31;;;;;;;1.42;1.35;;;12.30;99.90;;;;;;5126684;27;20059;-87
2023/08/31 00:29:58;;;;;;;1.52;1.42;;;12.20;99.90;;;;;;5127065;27;20047;-87
2023/08/31 00:32:24;;;;;;;1.52;1.42;;;12.10;99.90;;;;;;5142286;27;20415;-87
2023/08/31 00:34:50;;;;;;;1.55;1.45;;;12.20;99.90;;;;;;5121477;27;20043;-88
2023/08/31 00:37:16;;;;;;;1.58;1.48;;;12.10;99.90;;;;;;5107257;27;20054;-89
2023/08/31 00:39:43;;;;;;;1.55;1.45;;;12.00;99.90;;;;;;5103525;27;20417;-89
2023/08/31 00:42:08;;;;;;;1.58;1.48;;;12.00;99.90;;;;;;5120930;27;20053;-89
2023/08/31 00:44:34;;;;;;;1.40;1.35;;;12.00;99.90;;;;;;5125050;27;20043;-88
2023/08/31 00:47:02;;;;;;;1.42;1.38;;;11.90;99.90;;;;;;5121078;27;20070;-88
2023/08/31 00:49:28;;;;;;;1.50;1.40;;;11.90;99.90;;;;;;5118970;27;20474;-87
2023/08/31 00:51:57;;;;;;;1.25;1.25;;;12.00;99.90;;;;;;5126986;27;20034;-88
2023/08/31 00:54:23;;;;;;;1.27;1.27;;;11.90;99.90;;;;;;5103133;27;20155;-87
2023/08/31 00:56:53;;;;;;;1.27;1.27;;;11.90;99.90;;;;;;5104767;27;20536;-88
2023/08/31 00:59:19;;;;;;;1.25;1.25;;;11.90;99.90;;;;;;5104024;27;20066;-89
2023/08/31 01:02:08;;;;;;;1.15;1.15;;;11.90;99.90;;;;;;5127194;27;20119;-88
2023/08/31 01:04:42;;;;;;;1.17;1.17;;;12.00;99.90;;;;;;5109786;27;20786;-89
2023/08/31 01:07:30;;;;;;;1.25;1.25;;;12.20;99.90;;;;;;5142416;27;20047;-86
2023/08/31 01:10:11;;;;;;;1.15;1.15;;;12.20;99.90;;;;;;5124847;27;20104;-87
2023/08/31 01:12:51;;;;;;;1.13;1.13;;;12.10;99.90;;;;;;5120462;27;20104;-87
2023/08/31 01:15:18;;;;;;;0.98;0.98;;;12.10;99.90;;;;;;5122999;27;20768;-89
2023/08/31 01:17:50;;;;;;;0.85;0.85;;;12.10;99.90;;;;;;5121032;27;20066;-87
2023/08/31 01:20:27;;;;;;;0.85;0.85;;;12.30;99.90;;;;;;5121648;27;20139;-88
2023/08/31 01:23:03;;;;;;;0.80;0.80;;;12.20;99.90;;;;;;5123159;27;20122;-88
2023/08/31 01:25:30;;;;;;;0.75;0.75;;;12.20;99.90;;;;;;5140165;27;20047;-88
2023/08/31 01:27:58;;;;;;;0.80;0.80;;;12.10;99.90;;;;;;5109573;27;20043;-86
2023/08/31 01:30:24;;;;;;;0.70;0.70;;;12.20;99.90;;;;;;5123906;27;20130;-88
2023/08/31 01:32:49;;;;;;;0.60;0.60;;;12.10;99.90;;;;;;5127864;27;20179;-91
2023/08/31 01:35:17;;;;;;;0.60;0.60;;;12.10;99.90;;;;;;5128994;27;20510;-90
2023/08/31 01:37:52;;;;;;;0.60;0.60;;;12.00;99.90;;;;;;5115583;27;20062;-88
2023/08/31 01:40:41;;;;;;;0.60;0.60;;;12.20;99.90;;;;;;5128926;27;20049;-90
2023/08/31 01:43:10;;;;;;;0.70;0.70;;;12.10;99.90;;;;;;5130239;27;20693;-93
2023/08/31 01:45:37;;;;;;;0.70;0.70;;;12.20;99.90;;;;;;5109796;27;20054;-92
2023/08/31 01:48:04;;;;;;;0.82;0.82;;;12.20;99.90;;;;;;5109279;27;20142;-91
2023/08/31 01:50:30;;;;;;;0.75;0.75;;;12.30;99.90;;;;;;5109717;27;20085;-90
2023/08/31 01:52:56;;;;;;;0.80;0.80;;;12.20;99.90;;;;;;5122330;27;20560;-88
2023/08/31 01:55:22;;;;;;;0.80;0.80;;;12.10;99.90;;;;;;5120889;27;20225;-88
2023/08/31 01:57:51;;;;;;;0.73;0.73;;;12.10;99.90;;;;;;5111071;27;20399;-87
2023/08/31 02:00:18;;;;;;;0.85;0.85;;;12.30;99.90;;;;;;5122696;27;20054;-87
2023/08/31 02:02:44;;;;;;;0.80;0.80;;;12.20;99.90;;;;;;5126521;27;20701;-88
2023/08/31 02:05:10;;;;;;;0.80;0.80;;;12.20;99.90;;;;;;5122205;27;20146;-89
2023/08/31 02:07:36;;;;;;;0.80;0.80;;;12.20;99.90;;;;;;5119530;27;20166;-87
2023/08/31 02:10:02;;;;;;;0.80;0.80;;;12.20;99.90;;;;;;5121891;27;20073;-87
2023/08/31 02:12:28;;;;;;;0.80;0.80;;;12.20;99.90;;;;;;5120074;27;20047;-87
2023/08/31 02:14:53;;;;;;;0.82;0.82;;;12.30;99.90;;;;;;5129180;27;20147;-90
2023/08/31 02:17:19;;;;;;;0.80;0.80;;;12.20;99.90;;;;;;5126700;27;20042;-92
2023/08/31 02:19:45;;;;;;;0.80;0.80;;;12.20;99.90;;;;;;5107086;27;20039;-88
2023/08/31 02:22:10;;;;;;;0.80;0.80;;;12.20;99.90;;;;;;5109760;27;20054;-90
2023/08/31 02:24:36;;;;;;;0.80;0.80;;;12.20;99.90;;;;;;5106958;27;20438;-88
2023/08/31 02:27:02;;;;;;;0.88;0.88;;;12.00;99.90;;;;;;5121396;27;20108;-86
2023/08/31 02:29:28;;;;;;;0.82;0.82;;;12.10;99.90;;;;;;5104107;27;20095;-88
2023/08/31 02:31:53;;;;;;;0.80;0.80;;;12.00;99.90;;;;;;5102233;27;20133;-90
2023/08/31 02:34:19;;;;;;;0.85;0.85;;;12.00;99.90;;;;;;5126847;27;20133;-88
2023/08/31 02:36:45;;;;;;;0.77;0.77;;;11.90;99.90;;;;;;5119221;27;20754;-87
2023/08/31 02:39:11;;;;;;;0.80;0.80;;;11.90;99.90;;;;;;5124804;27;20050;-88
2023/08/31 02:41:36;;;;;;;0.82;0.82;;;11.90;99.90;;;;;;5109311;27;20061;-91
2023/08/31 02:44:02;;;;;;;0.85;0.85;;;11.90;99.90;;;;;;5108755;27;20500;-89
2023/08/31 02:46:28;;;;;;;0.77;0.77;;;12.00;99.90;;;;;;5122092;27;20138;-87
2023/08/31 02:48:54;;;;;;;0.75;0.75;;;12.00;99.90;;;;;;5117620;27;20043;-91
2023/08/31 02:51:19;;;;;;;0.77;0.77;;;11.90;99.90;;;;;;5118372;27;20043;-90
2023/08/31 02:53:48;;;;;;;0.70;0.70;;;11.90;99.90;;;;;;5112736;27;20119;-88
2023/08/31 02:56:14;;;;;;;0.73;0.73;;;11.90;99.90;;;;;;5119484;27;20035;-89
2023/08/31 02:58:40;;;;;;;0.80;0.80;;;11.90;99.90;;;;;;5125386;27;20042;-90
2023/08/31 03:01:10;;;;;;;0.70;0.70;;;12.00;99.90;;;;;;5108382;27;20050;-93
2023/08/31 03:03:40;;;;;;;0.70;0.70;;;11.90;99.90;;;;;;5108084;27;20046;-90
2023/08/31 03:06:09;;;;;;;0.70;0.70;;;12.00;99.90;;;;;;5124262;27;20038;-92
2023/08/31 03:08:43;;;;;;;0.77;0.77;;;11.90;99.90;;;;;;5105320;27;20130;-93
2023/08/31 03:11:14;;;;;;;0.80;0.80;;;11.90;99.90;;;;;;5128067;27;20049;-92
2023/08/31 03:13:48;;;;;;;0.70;0.70;;;12.00;99.90;;;;;;5108510;27;20048;-89
2023/08/31 03:16:16;;;;;;;0.70;0.70;;;12.10;99.90;;;;;;5113245;27;20055;-96
2023/08/31 03:18:51;;;;;;;0.70;0.70;;;11.90;99.90;;;;;;5123240;27;20039;-93
2023/08/31 03:21:16;;;;;;;0.70;0.70;;;12.10;99.90;;;;;;5108372;27;20450;-90
2023/08/31 03:23:42;;;;;;;0.70;0.70;;;12.00;99.90;;;;;;5122505;27;20114;-92
2023/08/31 03:26:10;;;;;;;0.70;0.70;;;11.90;99.90;;;;;;5107968;27;20074;-95
2023/08/31 03:28:40;;;;;;;0.70;0.70;;;12.00;99.90;;;;;;5139494;27;20046;-90
2023/08/31 03:31:11;;;;;;;0.70;0.70;;;11.90;99.90;;;;;;5125227;27;20039;-93
2023/08/31 03:33:57;;;;;;;0.70;0.70;;;12.00;99.90;;;;;;5110362;27;20039;-92
2023/08/31 03:36:23;;;;;;;0.63;0.63;;;11.90;99.90;;;;;;5112296;27;20055;-88
2023/08/31 03:38:49;;;;;;;0.70;0.70;;;12.00;99.90;;;;;;5107377;27;20385;-91
2023/08/31 03:41:18;;;;;;;0.70;0.70;;;12.10;99.90;;;;;;5129848;27;20045;-93
2023/08/31 03:43:44;;;;;;;0.70;0.70;;;12.00;99.90;;;;;;5101649;27;20050;-91
2023/08/31 03:46:09;;;;;;;0.65;0.65;;;12.00;99.90;;;;;;5128209;27;20035;-86
2023/08/31 03:48:41;;;;;;;0.65;0.65;;;11.90;99.90;;;;;;5101799;27;20043;-93
2023/08/31 03:51:10;;;;;;;0.63;0.63;;;11.90;99.90;;;;;;5126973;27;20065;-92
2023/08/31 03:53:35;;;;;;;0.60;0.60;;;11.90;99.90;;;;;;5108275;27;20059;-89
2023/08/31 03:56:03;;;;;;;0.70;0.70;;;12.00;99.90;;;;;;5109560;27;20049;-90
2023/08/31 03:58:29;;;;;;;0.70;0.70;;;12.00;99.90;;;;;;5143026;27;20121;-87
2023/08/31 04:00:55;;;;;;;0.70;0.70;;;12.00;99.90;;;;;;5127015;27;20137;-90
2023/08/31 04:03:26;;;;;;;0.70;0.70;;;11.90;99.90;;;;;;5110656;27;20136;-91
2023/08/31 04:06:05;;;;;;;0.65;0.65;;;11.90;99.90;;;;;;5125190;27;20047;-91
2023/08/31 04:08:31;;;;;;;0.63;0.63;;;12.00;99.90;;;;;;5128769;27;20057;-90
2023/08/31 04:11:00;;;;;;;0.65;0.65;;;11.90;99.90;;;;;;5132108;27;20057;-88
2023/08/31 04:13:25;;;;;;;0.63;0.63;;;11.90;99.90;;;;;;5122989;27;20567;-90
2023/08/31 04:15:53;;;;;;;0.60;0.60;;;11.90;99.90;;;;;;5122954;27;20042;-90
2023/08/31 04:18:19;;;;;;;0.60;0.60;;;11.80;99.90;;;;;;5111345;27;20091;-94
2023/08/31 04:20:52;;;;;;;0.65;0.65;;;12.00;99.90;;;;;;5110993;27;20496;-87
2023/08/31 04:23:19;;;;;;;0.70;0.70;;;11.80;99.90;;;;;;5111880;27;20134;-88
2023/08/31 04:25:53;;;;;;;0.63;0.63;;;11.80;99.90;;;;;;5126767;27;20492;-92
2023/08/31 04:28:19;;;;;;;0.60;0.60;;;11.70;99.90;;;;;;5125429;27;20039;-94
2023/08/31 04:30:45;;;;;;;0.68;0.68;;;11.80;99.90;;;;;;5108128;27;20053;-89
2023/08/31 04:33:11;;;;;;;0.70;0.70;;;11.80;99.90;;;;;;5129222;27;20042;-87
2023/08/31 04:35:36;;;;;;;0.70;0.70;;;11.80;99.90;;;;;;5102872;27;20043;-85
2023/08/31 04:38:02;;;;;;;0.60;0.60;;;11.70;99.90;;;;;;5121014;27;20117;-89
2023/08/31 04:40:31;;;;;;;0.60;0.60;;;11.80;99.90;;;;;;5111851;27;20035;-92
2023/08/31 04:42:57;;;;;;;0.60;0.60;;;11.70;99.90;;;;;;5109582;27;20511;-89
2023/08/31 04:45:22;;;;;;;0.70;0.70;;;11.80;99.90;;;;;;5113615;27;20039;-89
2023/08/31 04:47:50;;;;;;;0.70;0.70;;;11.80;99.90;;;;;;5140299;27;20047;-87
2023/08/31 04:50:17;;;;;;;0.60;0.60;;;11.70;99.90;;;;;;5126216;27;20047;-87
2023/08/31 04:52:43;;;;;;;0.63;0.63;;;11.80;99.90;;;;;;5110914;27;20506;-92
2023/08/31 04:55:09;;;;;;;0.70;0.70;;;11.80;99.90;;;;;;5105767;27;20077;-87
2023/08/31 04:57:35;;;;;;;0.70;0.70;;;11.90;99.90;;;;;;5108513;27;20454;-90
2023/08/31 05:00:01;;;;;;;0.70;0.70;;;11.90;99.90;;;;;;5123148;27;20046;-88
2023/08/31 05:02:28;;;;;;;0.70;0.70;;;12.00;99.90;;;;;;5119737;27;20038;-86
2023/08/31 05:04:54;;;;;;;0.70;0.70;;;12.10;99.90;;;;;;5120259;27;20046;-87
2023/08/31 05:07:19;;;;;;;0.70;0.70;;;12.00;99.90;;;;;;5109129;27;20393;-89
2023/08/31 05:09:45;;;;;;;0.70;0.70;;;12.00;99.90;;;;;;5110692;27;20637;-87
2023/08/31 05:12:11;;;;;;;0.70;0.70;;;12.20;99.90;;;;;;5123712;27;20081;-92
2023/08/31 05:14:37;;;;;;;0.70;0.70;;;12.10;99.90;;;;;;5125230;27;20039;-87
2023/08/31 05:17:06;;;;;;;0.70;0.70;;;12.30;99.90;;;;;;5104086;27;20046;-85
2023/08/31 05:19:32;;;;;;;0.63;0.63;;;12.20;99.90;;;;;;5108559;27;20129;-88
2023/08/31 05:21:58;;;;;;;0.70;0.70;;;12.30;99.90;;;;;;5123357;27;20636;-88
2023/08/31 05:24:24;;;;;;;0.70;0.70;;;12.40;99.90;;;;;;5107166;27;20065;-88
2023/08/31 05:26:50;;;;;;;0.70;0.70;;;12.50;99.90;;;;;;5111900;27;20099;-86
2023/08/31 05:29:16;;;;;;;0.73;0.73;;;12.30;99.90;;;;;;5127308;27;20047;-91
2023/08/31 05:31:42;;;;;;;0.70;0.70;;;12.40;99.90;;;;;;5125479;27;20611;-89
2023/08/31 05:34:12;;;;;;;0.70;0.70;;;12.50;99.90;;;;;;5121787;27;20043;-87
2023/08/31 05:36:38;;;;;;;0.70;0.70;;;12.70;99.90;;;;;;5108810;27;20070;-89
2023/08/31 05:39:06;;;;;;;0.70;0.70;;;12.70;99.90;;;;;;5109892;27;20400;-94
2023/08/31 05:41:31;;;;;;;0.70;0.70;;;12.60;99.90;;;;;;5126617;27;20066;-90
2023/08/31 05:43:57;;;;;;;0.80;0.80;;;12.60;99.90;;;;;;5121051;27;20492;-92
2023/08/31 05:46:22;;;;;;;0.80;0.80;;;12.50;99.90;;;;;;5126172;27;20038;-87
2023/08/31 05:48:48;;;;;;;0.77;0.77;;;12.90;99.90;;;;;;5099069;27;20050;-87
2023/08/31 05:51:14;;;;;;;0.82;0.82;;;14.00;99.90;;;;;;5106766;27;20039;-90
2023/08/31 05:53:42;;;;;;;0.80;0.80;;;13.70;99.90;;;;;;5122544;27;20043;-87
2023/08/31 05:56:08;;;;;;;0.90;0.90;;;13.60;99.90;;;;;;5103331;27;20046;-89
2023/08/31 05:58:35;;;;;;;0.90;0.90;;;13.50;99.90;;;;;;5125592;27;20039;-89
2023/08/31 06:01:02;;;;;;;0.93;0.93;;;13.40;99.90;;;;;;5121322;27;20050;-87
2023/08/31 06:03:29;;;;;;;0.95;0.95;;;13.50;99.90;;;;;;5122091;27;20054;-87
2023/08/31 06:05:55;;;;;;;1.00;1.00;;;13.60;99.90;;;;;;5139129;27;21466;-87
2023/08/31 06:08:21;;;;;;;1.02;1.02;;;13.70;99.90;;;;;;5108065;27;20087;-88
2023/08/31 06:10:47;;;;;;;1.00;1.00;;;13.80;99.90;;;;;;5120817;27;20054;-89
2023/08/31 06:13:12;;;;;;;1.05;1.05;;;13.80;99.90;;;;;;5101640;27;20054;-89
2023/08/31 06:15:38;;;;;;;0.98;0.98;;;13.90;99.90;;;;;;5126689;27;20043;-94
2023/08/31 06:18:05;;;;;;;1.00;1.00;;;14.00;99.90;;;;;;5109307;27;20039;-89
2023/08/31 06:20:31;;;;;;;0.90;0.90;;;14.00;99.90;;;;;;5108439;27;20442;-88
2023/08/31 06:22:57;;;;;;;0.90;0.90;;;14.20;99.90;;;;;;5108265;27;20126;-89
2023/08/31 06:25:23;;;;;;;0.85;0.85;;;14.30;99.90;;;;;;5099456;27;20803;-92
2023/08/31 06:27:49;;;;;;;0.82;0.82;;;14.20;99.90;;;;;;5109062;27;20039;-91
2023/08/31 06:30:18;;;;;;;0.77;0.77;;;14.10;99.90;;;;;;5106204;27;20046;-89
2023/08/31 06:32:45;;;;;;;0.70;0.70;;;14.30;99.90;;;;;;5109917;27;20050;-92
2023/08/31 06:35:12;;;;;;;0.77;0.77;;;14.40;99.90;;;;;;5104544;27;20045;-90
2023/08/31 06:37:38;;;;;;;0.70;0.70;;;14.50;99.90;;;;;;5103746;27;20034;-87
2023/08/31 06:40:09;;;;;;;0.60;0.60;;;14.60;99.90;;;;;;5123989;27;20879;-89
2023/08/31 06:42:38;;;;;;;0.60;0.60;;;14.80;99.90;;;;;;5100175;27;20046;-86
2023/08/31 06:45:06;;;;;;;0.60;0.60;;;14.90;99.90;;;;;;5118867;27;20047;-89
2023/08/31 06:47:32;;;;;;;0.60;0.60;;;15.00;99.90;;;;;;5122690;27;20091;-87
2023/08/31 06:49:57;;;;;;;0.50;0.50;;;15.20;99.90;;;;;;5101656;27;20047;-90
2023/08/31 06:52:24;;;;;;;0.55;0.55;;;15.30;99.90;;;;;;5105510;27;20059;-86
2023/08/31 06:54:50;;;;;;;0.50;0.50;;;15.40;99.90;;;;;;5125786;27;20058;-88
2023/08/31 06:57:16;;;;;;;0.60;0.60;;;15.50;99.90;;;;;;5122892;27;20050;-86
2023/08/31 06:59:41;;;;;;;0.50;0.50;;;15.60;99.90;;;;;;5107239;27;20042;-89
2023/08/31 07:02:07;;;;;;;0.50;0.50;;;15.80;99.90;;;;;;5124074;27;20046;-88
2023/08/31 07:04:35;;;;;;;0.60;0.60;;;15.80;99.90;;;;;;5113907;27;20576;-92
2023/08/31 07:07:01;;;;;;;0.60;0.60;;;15.80;99.90;;;;;;5106137;27;20114;-89
2023/08/31 07:09:27;;;;;;;0.60;0.60;;;15.80;99.90;;;;;;5126585;27;20857;-91
2023/08/31 07:11:52;;;;;;;0.60;0.60;;;15.80;99.90;;;;;;5107742;27;20066;-90
2023/08/31 07:14:18;;;;;;;0.60;0.60;;;15.90;99.90;;;;;;5103602;27;20050;-89
2023/08/31 07:16:47;;;;;;;0.50;0.50;;;15.80;99.90;;;;;;5122127;27;20573;-90
2023/08/31 07:19:13;;;;;;;0.57;0.57;;;15.80;99.90;;;;;;5099361;27;20549;-91
2023/08/31 07:21:38;;;;;;;0.50;0.50;;;16.00;99.90;;;;;;5109168;27;20039;-88
2023/08/31 07:24:06;;;;;;;0.60;0.60;;;15.90;99.90;;;;;;5111672;27;20062;-92
2023/08/31 07:26:32;;;;;;;0.60;0.60;;;15.70;99.90;;;;;;5103813;27;20077;-91
2023/08/31 07:28:57;;;;;;;0.60;0.60;;;15.60;99.90;;;;;;5108023;27;20070;-95
2023/08/31 07:31:23;;;;;;;0.60;0.60;;;15.50;99.90;;;;;;5107405;27;20180;-90
2023/08/31 07:33:49;;;;;;;0.52;0.52;;;15.40;99.90;;;;;;5105178;27;20042;-94
2023/08/31 07:36:15;;;;;;;0.57;0.57;;;15.90;99.90;;;;;;5103455;27;20051;-89
2023/08/31 07:38:41;;;;;;;0.60;0.60;;;15.90;99.90;;;;;;5108303;27;20043;-88
2023/08/31 07:41:06;;;;;;;0.50;0.50;;;15.90;99.90;;;;;;5108213;27;20129;-90
2023/08/31 07:43:32;;;;;;;0.50;0.50;;;16.20;99.90;;;;;;5122191;27;20047;-89
2023/08/31 07:45:58;;;;;;;0.60;0.60;;;16.40;99.90;;;;;;5116248;27;20137;-89
2023/08/31 07:48:24;;;;;;;0.60;0.60;;;16.40;99.90;;;;;;5127586;27;20053;-86
2023/08/31 07:50:49;;;;;;;0.60;0.60;;;16.70;99.90;;;;;;5128129;27;20065;-90
2023/08/31 07:53:17;;;;;;;0.60;0.60;;;16.70;99.90;;;;;;5112716;27;20111;-87
2023/08/31 07:55:52;;;;;;;0.60;0.60;;;16.90;99.90;;;;;;5130170;27;20118;-88
2023/08/31 07:58:17;;;;;;;0.60;0.60;;;16.60;99.90;;;;;;5111950;27;20043;-88
2023/08/31 08:00:43;;;;;;;0.60;0.60;;;16.60;99.90;;;;;;5111595;27;20043;-90
2023/08/31 08:03:08;;;;;;;0.60;0.60;;;16.50;99.90;;;;;;5102782;27;20031;-85
2023/08/31 08:05:34;;;;;;;0.68;0.68;;;16.70;99.90;;;;;;5111137;27;20042;-87
2023/08/31 08:08:00;;;;;;;0.57;0.57;;;17.10;99.90;;;;;;5104751;27;20092;-89
2023/08/31 08:10:26;;;;;;;0.60;0.60;;;16.90;99.90;;;;;;5120395;27;20039;-90
2023/08/31 08:12:52;;;;;;;0.63;0.63;;;17.10;99.90;;;;;;5124106;27;20058;-88
2023/08/31 08:15:17;;;;;;;0.70;0.70;;;17.10;99.90;;;;;;5122110;27;20042;-90
2023/08/31 08:17:43;;;;;;;0.70;0.70;;;17.20;99.90;;;;;;5126534;27;20039;-87
2023/08/31 08:20:09;;;;;;;0.80;0.80;;;17.50;99.90;;;;;;5124319;27;20492;-90
2023/08/31 08:22:35;;;;;;;0.70;0.70;;;17.40;99.90;;;;;;5113456;27;20043;-88
2023/08/31 08:25:02;;;;;;;0.73;0.73;;;17.70;99.90;;;;;;5141443;27;20118;-89
2023/08/31 08:27:28;;;;;;;0.70;0.70;;;17.50;99.90;;;;;;5102058;27;20074;-94
2023/08/31 08:29:56;;;;;;;0.70;0.70;;;17.40;99.90;;;;;;5097514;27;20047;-88
2023/08/31 08:32:22;;;;;;;0.70;0.70;;;17.60;99.90;;;;;;5119852;27;20046;-90
2023/08/31 08:34:48;;;;;;;0.60;0.60;;;17.50;99.90;;;;;;5126787;27;20080;-92
2023/08/31 08:37:13;;;;;;;0.68;0.68;;;17.90;99.90;;;;;;5112288;27;20049;-91
2023/08/31 08:39:39;;;;;;;0.68;0.68;;;18.20;99.90;;;;;;5102517;27;20077;-87
2023/08/31 08:42:07;;;;;;;0.50;0.50;;;18.30;99.90;;;;;;5104905;27;20051;-88
2023/08/31 08:44:35;;;;;;;0.60;0.60;;;18.90;99.90;;;;;;5103859;27;20072;-91
2023/08/31 08:47:01;;;;;;;0.60;0.60;;;18.70;99.90;;;;;;5128565;27;20119;-90
2023/08/31 08:49:30;;;;;;;0.60;0.60;;;18.50;99.90;;;;;;5119476;27;22471;-92
2023/08/31 08:51:56;;;;;;;0.60;0.60;;;18.40;99.90;;;;;;5105757;27;20039;-93
2023/08/31 08:54:25;;;;;;;0.80;0.80;;;18.20;99.90;;;;;;5126071;27;20054;-91
2023/08/31 08:56:51;;;;;;;0.80;0.80;;;18.00;99.90;;;;;;5110689;27;20042;-94
2023/08/31 08:59:26;;;;;;;0.70;0.70;;;18.00;99.90;;;;;;5108945;27;20050;-91
2023/08/31 09:01:51;;;;;;;0.60;0.60;;;18.20;99.90;;;;;;5123034;27;20074;-85
2023/08/31 09:04:17;;;;;;;0.60;0.60;;;18.50;99.90;;;;;;5124294;27;20074;-86
2023/08/31 09:06:43;;;;;;;0.60;0.60;;;18.90;99.90;;;;;;5125201;27;20039;-95
2023/08/31 09:09:10;;;;;;;0.70;0.70;;;18.80;99.90;;;;;;5109281;27;20503;-89
2023/08/31 09:11:35;;;;;;;0.70;0.70;;;18.80;99.90;;;;;;5121876;27;20133;-92
2023/08/31 09:14:15;;;;;;;0.77;0.77;;;18.80;99.90;;;;;;5105347;27;20129;-90
2023/08/31 09:16:47;;;;;;;0.80;0.80;;;18.60;99.90;;;;;;5107816;27;20092;-91
2023/08/31 09:19:20;;;;;;;0.80;0.80;;;18.30;99.90;;;;;;5125373;27;20051;-91
2023/08/31 09:21:50;;;;;;;0.80;0.80;;;19.00;99.90;;;;;;5106994;27;20046;-93
2023/08/31 09:24:17;;;;;;;0.68;0.68;;;19.60;99.90;;;;;;5100387;27;20085;-89
2023/08/31 09:26:51;;;;;;;0.90;0.90;;;20.00;99.90;;;;;;5124703;27;20046;-93
2023/08/31 09:29:22;;;;;;;0.95;0.95;;;19.80;99.90;;;;;;5108417;27;20042;-90
2023/08/31 09:31:51;;;;;;;0.93;0.93;;;19.40;99.90;;;;;;5105193;27;20050;-88
2023/08/31 09:34:19;;;;;;;0.80;0.80;;;19.00;99.90;;;;;;5119518;27;20391;-91
2023/08/31 09:36:45;;;;;;;0.85;0.85;;;18.60;99.90;;;;;;5106768;27;20027;-87
2023/08/31 09:39:25;;;;;;;0.88;0.88;;;18.40;99.90;;;;;;5110218;27;20087;-88
2023/08/31 09:41:55;;;;;;;1.00;1.00;;;18.10;99.90;;;;;;5124005;27;20039;-86
2023/08/31 09:44:21;;;;;;;0.98;0.98;;;18.00;99.90;;;;;;5124844;27;20054;-85
2023/08/31 09:46:47;;;;;;;1.05;1.05;;;17.90;99.90;;;;;;5122959;27;20043;-88
2023/08/31 09:49:17;;;;;;;1.13;1.13;;;18.70;99.90;;;;;;5109951;27;20520;-85
2023/08/31 09:51:48;;;;;;;1.20;1.20;;;19.10;99.90;;;;;;5109343;27;20050;-88
2023/08/31 09:54:18;;;;;;;1.10;1.10;;;18.70;99.90;;;;;;5097404;27;20547;-86
2023/08/31 09:56:46;;;;;;;1.05;1.05;;;18.40;99.90;;;;;;5119470;27;20055;-87
2023/08/31 09:59:14;;;;;;;1.10;1.10;;;18.70;99.90;;;;;;5121120;27;20042;-86
2023/08/31 10:01:41;;;;;;;1.15;1.15;;;18.80;99.90;;;;;;5099114;27;20393;-92
2023/08/31 10:04:13;;;;;;;1.15;1.15;;;18.40;99.90;;;;;;5110016;27;20050;-91
2023/08/31 10:06:40;;;;;;;1.08;1.08;;;18.30;99.90;;;;;;5123494;27;20051;-83
2023/08/31 10:09:06;;;;;;;1.05;1.05;;;18.20;99.90;;;;;;5124169;27;20594;-92
2023/08/31 10:11:33;;;;;;;1.20;1.20;;;18.30;99.90;;;;;;5143275;27;20037;-89
2023/08/31 10:14:14;;;;;;;1.10;1.10;;;19.30;99.90;;;;;;5112158;27;20039;-96
2023/08/31 10:16:52;;;;;;;1.20;1.20;;;18.90;99.90;;;;;;5128177;27;20118;-94
2023/08/31 10:19:22;;;;;;;1.10;1.10;;;19.60;99.90;;;;;;5123728;27;20109;-94
2023/08/31 10:21:49;;;;;;;0.90;0.90;;;19.90;99.90;;;;;;5127210;27;20068;-87
2023/08/31 10:24:15;;;;;;;0.70;0.70;;;19.90;99.90;;;;;;5129801;27;20685;-87
2023/08/31 10:26:40;;;;;;;0.70;0.70;;;19.70;99.90;;;;;;5122660;27;20067;-89
2023/08/31 10:29:24;;;;;;;0.65;0.65;;;20.00;99.90;;;;;;5110237;27;20492;-87
2023/08/31 10:31:50;;;;;;;0.57;0.57;;;20.00;99.90;;;;;;5128621;27;20046;-91
2023/08/31 10:34:16;;;;;;;0.50;0.50;;;19.40;99.90;;;;;;5108330;27;20058;-86
2023/08/31 10:36:46;;;;;;;0.52;0.52;;;19.70;99.90;;;;;;5125268;27;20138;-91
2023/08/31 10:39:22;;;;;;;0.50;0.50;;;20.20;99.90;;;;;;5110614;27;20038;-89
2023/08/31 10:42:04;;;;;;;0.50;0.50;;;19.60;99.90;;;;;;5125393;27;20046;-93
2023/08/31 10:44:37;;;;;;;0.60;0.60;;;19.10;99.90;;;;;;5129200;27;20069;-94
2023/08/31 10:47:12;;;;;;;0.55;0.55;;;18.60;99.90;;;;;;5110492;27;20034;-93
2023/08/31 10:49:38;;;;;;;0.60;0.60;;;18.10;99.90;;;;;;5122293;27;20043;-89
2023/08/31 10:52:20;;;;;;;0.60;0.60;;;17.90;99.90;;;;;;5105133;27;20046;-90
2023/08/31 10:54:46;;;;;;;0.60;0.60;;;17.70;99.90;;;;;;5088331;27;20055;-90
2023/08/31 10:57:13;;;;;;;0.80;0.80;;;17.40;99.90;;;;;;5104209;27;20618;-91
2023/08/31 10:59:53;;;;;;;0.70;0.70;;;16.90;99.90;;;;;;5105275;27;20121;-90
2023/08/31 11:02:42;;;;;;;0.70;0.70;;;16.60;99.90;;;;;;5123750;27;20121;-88
2023/08/31 11:05:14;;;;;;;0.80;0.80;;;16.40;99.90;;;;;;5103657;27;20051;-89
2023/08/31 11:07:41;;;;;;;0.73;0.73;;;16.40;99.90;;;;;;5118164;27;20043;-87
2023/08/31 11:10:19;;;;;;;0.73;0.73;;;16.50;99.90;;;;;;5107748;27;20047;-88
2023/08/31 11:12:53;;;;;;;0.70;0.70;;;16.60;99.90;;;;;;5100107;27;20542;-88
2023/08/31 11:15:21;;;;;;;0.80;0.80;;;16.70;99.90;;;;;;5126039;27;20058;-87
2023/08/31 11:17:50;;;;;;;0.80;0.80;;;16.70;99.90;;;;;;5114990;27;20692;-87
2023/08/31 11:20:20;;;;;;;0.73;0.73;;;16.80;99.90;;;;;;5107685;27;20047;-88
2023/08/31 11:22:55;;;;;;;0.85;0.85;;;16.90;99.90;;;;;;5107884;27;20105;-89
2023/08/31 11:25:23;;;;;;;0.90;0.90;;;16.90;99.90;;;;;;5109695;27;20050;-90
2023/08/31 11:27:57;;;;;;;0.90;0.90;;;16.80;99.90;;;;;;5103295;27;20509;-85
2023/08/31 11:30:24;;;;;;;0.82;0.82;;;16.70;99.90;;;;;;5107234;27;20049;-85
2023/08/31 11:32:53;;;;;;;0.88;0.88;;;16.70;99.90;;;;;;5118671;27;20582;-85
2023/08/31 11:35:21;;;;;;;0.90;0.90;;;16.60;99.90;;;;;;5123526;27;20047;-85
2023/08/31 11:37:51;;;;;;;0.90;0.90;;;16.70;99.90;;;;;;5124595;27;20049;-83
2023/08/31 11:40:17;;;;;;;0.82;0.82;;;16.70;99.90;;;;;;5121604;27;20046;-84
2023/08/31 11:42:43;;;;;;;0.90;0.90;;;16.40;99.90;;;;;;5118691;27;20136;-83
2023/08/31 11:45:12;;;;;;;0.90;0.90;;;16.40;99.90;;;;;;5135853;27;20054;-82
2023/08/31 11:47:39;;;;;;;0.90;0.90;;;16.30;99.90;;;;;;5124470;27;20043;-84
2023/08/31 11:50:06;;;;;;;0.90;0.90;;;16.00;99.90;;;;;;5120042;27;20403;-81
2023/08/31 11:52:32;;;;;;;0.90;0.90;;;16.10;99.90;;;;;;5114960;27;20062;-82
2023/08/31 11:54:57;;;;;;;0.88;0.88;;;16.00;99.90;;;;;;5115627;27;20047;-82
2023/08/31 11:57:28;;;;;;;0.88;0.88;;;16.10;99.90;;;;;;5130629;27;20087;-83
2023/08/31 11:59:55;;;;;;;0.90;0.90;;;16.00;99.90;;;;;;5119462;27;20085;-82
2023/08/31 12:02:21;;;;;;;0.90;0.90;;;16.00;99.90;;;;;;5124911;27;20055;-84
2023/08/31 12:04:48;;;;;;;0.90;0.90;;;15.90;99.90;;;;;;5117667;27;20425;-81
2023/08/31 12:07:18;;;;;;;0.85;0.85;;;15.80;99.90;;;;;;5129053;27;20069;-81
2023/08/31 12:09:47;;;;;;;0.82;0.82;;;15.70;99.90;;;;;;5112553;27;20067;-83
2023/08/31 12:12:20;;;;;;;0.70;0.70;;;15.60;99.90;;;;;;5119298;27;20140;-87
2023/08/31 12:14:46;;;;;;;0.80;0.80;;;15.50;99.90;;;;;;5123602;27;20046;-84
2023/08/31 12:17:12;;;;;;;0.80;0.80;;;15.40;99.90;;;;;;5122418;27;22005;-85
2023/08/31 12:19:41;;;;;;;0.80;0.80;;;15.30;99.90;;;;;;5116870;27;20070;-85
2023/08/31 12:22:12;;;;;;;0.70;0.70;;;15.40;99.90;;;;;;5121364;27;20389;-85
2023/08/31 12:24:41;;;;;;;0.70;0.70;;;15.40;99.90;;;;;;5122222;27;20127;-87
2023/08/31 12:27:08;;;;;;;0.60;0.60;;;15.50;99.90;;;;;;5119607;27;20047;-86
2023/08/31 12:29:34;;;;;;;0.60;0.60;;;16.10;99.90;;;;;;5128175;27;20114;-89
2023/08/31 12:32:00;;;;;;;0.57;0.57;;;16.80;99.90;;;;;;5111482;27;20103;-87
2023/08/31 12:34:26;;;;;;;0.60;0.60;;;17.10;99.90;;;;;;5127354;27;20047;-90
2023/08/31 12:36:52;;;;;;;0.60;0.60;;;17.10;99.90;;;;;;5124208;27;20043;-88
2023/08/31 12:39:18;;;;;;;0.60;0.60;;;17.00;99.90;;;;;;5124146;27;20058;-88
2023/08/31 12:41:44;;;;;;;0.60;0.60;;;16.70;99.90;;;;;;5106229;27;20039;-89
2023/08/31 12:44:22;;;;;;;0.68;0.68;;;16.70;99.90;;;;;;5111317;27;20491;-96
2023/08/31 12:46:47;;;;;;;0.60;0.60;;;16.70;99.90;;;;;;5124065;27;20043;-90
2023/08/31 12:49:13;;;;;;;0.60;0.60;;;17.20;99.90;;;;;;5126850;27;20081;-90
2023/08/31 12:51:39;;;;;;;0.65;0.65;;;17.10;99.90;;;;;;5107256;27;20068;-89